Pays
Station

 

Conditions  météo  pour  Mansfield, Mansfield Lahm Municipal Airport  -  Etats-Unis    Etats-Unis

  
14 °C
    
 
 

METAR pour Mansfield, Mansfield Lahm Municipal Airport :

KMFD 231201Z 32008KT 7SM BKN006 14/13 A3014 RMK AO2 T01390128

 

Voici le bulletin pour Mansfield, Mansfield Lahm Municipal Airport - Etats-Unis.
 
Le bulletin a été fait il y a 23 minutes, à 12:01 UTC .
Le vent soufflait à la vitesse de 4.1 mètres par seconde de Nord-ouest (320°).
 
La température était de 14 °C, avec un point de rosée à 13 °C.
La pression atmosphérique était de 1021 hPa.
L'humidité relative était de 93.7%.
 
Il y avait 5 à 7/8ème de nébulosité à une hauteur de 183 mètres.
 
La visibilité globale était de 11.3 kilomètres.
 

 
 
 

Pays :   A   B   C   D   E   F   G   H   I   J   K   L   M   N   O   P   Q   R   S   T   U   V   W   Y   Z

 

Partenaires :  Info Météo avec Met'info
Météo Marine avec MeteoMarine.net
Infos Site  |  Infos Légales  |  Crédits  |  Confidentialité
Contactez-nous  |  Ajouter aux favoris
© 2013-2018 METAR - Tous droits réservés